LHA8LH KPDX-KPAE
Flight info
| Callsign | LHA8LH |
|---|---|
| Flight time | 0h 42m |
| Altitude | 24000 |
| Route | BTG |
| Aircraft | B737/M-SDE1E2FGIJ1RWYZ/S |
Departure
| Time | 2026-04-26 08:52 |
|---|---|
| Airport | Portland International Airport (KPDX) |
Arrival
| Time | 2026-04-26 09:34 |
|---|---|
| Airport | Seattle Paine Field International Airport (KPAE) |
| Time | Latitude | Longitude | Altitude | Speed | Heading |
|---|---|---|---|---|---|
| 2026-04-26 08:04 | 45.58841 | -122.59628 | 35 ft | 0 kts | 46° |
| 2026-04-26 08:46 | 45.58820 | -122.59659 | 35 ft | 5 kts | 45° |
| 2026-04-26 08:47 | 45.58797 | -122.59691 | 34 ft | 5 kts | 45° |
| 2026-04-26 08:47 | 45.58783 | -122.59713 | 33 ft | 2 kts | 66° |
| 2026-04-26 08:47 | 45.58782 | -122.59729 | 31 ft | 2 kts | 116° |
| 2026-04-26 08:47 | 45.58785 | -122.59737 | 35 ft | 0 kts | 120° |
| 2026-04-26 08:49 | 45.58782 | -122.59730 | 35 ft | 3 kts | 120° |
| 2026-04-26 08:49 | 45.58751 | -122.59653 | 34 ft | 15 kts | 120° |
| 2026-04-26 08:49 | 45.58685 | -122.59490 | 34 ft | 21 kts | 120° |
| 2026-04-26 08:49 | 45.58590 | -122.59310 | 31 ft | 25 kts | 128° |
| 2026-04-26 08:50 | 45.58474 | -122.59105 | 30 ft | 28 kts | 129° |
| 2026-04-26 08:50 | 45.58365 | -122.58873 | 32 ft | 28 kts | 118° |
| 2026-04-26 08:50 | 45.58274 | -122.58643 | 31 ft | 26 kts | 120° |
| 2026-04-26 08:50 | 45.58188 | -122.58430 | 30 ft | 22 kts | 120° |
| 2026-04-26 08:51 | 45.58088 | -122.58484 | 32 ft | 13 kts | 292° |
| 2026-04-26 08:51 | 45.58188 | -122.58746 | 34 ft | 65 kts | 299° |
| 2026-04-26 08:52 | 45.61134 | -122.61977 | 2011 ft | 174 kts | 9° |
| 2026-04-26 08:52 | 45.62351 | -122.61708 | 2765 ft | 179 kts | 8° |
| 2026-04-26 08:53 | 45.63588 | -122.61444 | 3540 ft | 180 kts | 8° |
| 2026-04-26 08:53 | 45.64832 | -122.61184 | 4320 ft | 181 kts | 8° |
| 2026-04-26 08:53 | 45.66076 | -122.60928 | 5077 ft | 180 kts | 7° |
| 2026-04-26 08:53 | 45.67317 | -122.60677 | 5823 ft | 180 kts | 7° |
| 2026-04-26 08:54 | 45.68560 | -122.60432 | 6533 ft | 188 kts | 6° |
| 2026-04-26 08:54 | 45.69960 | -122.60158 | 6822 ft | 218 kts | 6° |
| 2026-04-26 08:54 | 45.71556 | -122.59845 | 7129 ft | 241 kts | 7° |
| 2026-04-26 08:54 | 45.73250 | -122.59510 | 7758 ft | 249 kts | 7° |
| 2026-04-26 08:55 | 45.74987 | -122.59235 | 8505 ft | 255 kts | 360° |
| 2026-04-26 08:55 | 45.76818 | -122.59466 | 9045 ft | 272 kts | 351° |
| 2026-04-26 08:55 | 45.78709 | -122.59940 | 10036 ft | 278 kts | 349° |
| 2026-04-26 08:55 | 45.80648 | -122.60471 | 10849 ft | 294 kts | 349° |
| 2026-04-26 08:56 | 45.82764 | -122.61049 | 11273 ft | 320 kts | 349° |
| 2026-04-26 08:56 | 45.84224 | -122.61441 | 11877 ft | 325 kts | 349° |
| 2026-04-26 08:56 | 45.87218 | -122.62228 | 13345 ft | 329 kts | 350° |
| 2026-04-26 08:56 | 45.89489 | -122.62813 | 14370 ft | 333 kts | 350° |
| 2026-04-26 08:57 | 45.91754 | -122.63390 | 15378 ft | 337 kts | 350° |
| 2026-04-26 08:57 | 45.94079 | -122.63977 | 16414 ft | 341 kts | 351° |
| 2026-04-26 08:57 | 45.96428 | -122.64567 | 17454 ft | 345 kts | 351° |
| 2026-04-26 08:57 | 45.98814 | -122.65165 | 18419 ft | 350 kts | 351° |
| 2026-04-26 08:58 | 46.01235 | -122.65771 | 19262 ft | 356 kts | 351° |
| 2026-04-26 08:58 | 46.03686 | -122.66384 | 20115 ft | 361 kts | 351° |
| 2026-04-26 08:58 | 46.06178 | -122.67009 | 20959 ft | 365 kts | 351° |
| 2026-04-26 08:58 | 46.08695 | -122.67639 | 21830 ft | 369 kts | 351° |
| 2026-04-26 08:59 | 46.11215 | -122.68271 | 22892 ft | 367 kts | 351° |
| 2026-04-26 08:59 | 46.13727 | -122.68902 | 23643 ft | 367 kts | 351° |
| 2026-04-26 08:59 | 46.16226 | -122.69530 | 23891 ft | 363 kts | 351° |
| 2026-04-26 08:59 | 46.18723 | -122.70159 | 23886 ft | 364 kts | 351° |
| 2026-04-26 09:00 | 46.21218 | -122.70786 | 23897 ft | 363 kts | 351° |
| 2026-04-26 09:00 | 46.23707 | -122.71414 | 23900 ft | 363 kts | 351° |
| 2026-04-26 09:00 | 46.26195 | -122.72041 | 23894 ft | 363 kts | 351° |
| 2026-04-26 09:00 | 46.28685 | -122.72669 | 23891 ft | 363 kts | 351° |
| 2026-04-26 09:01 | 46.31173 | -122.73297 | 23895 ft | 363 kts | 351° |
| 2026-04-26 09:01 | 46.33663 | -122.73927 | 23894 ft | 363 kts | 351° |
| 2026-04-26 09:01 | 46.36152 | -122.74557 | 23892 ft | 363 kts | 351° |
| 2026-04-26 09:01 | 46.38639 | -122.75187 | 23900 ft | 363 kts | 351° |
| 2026-04-26 09:02 | 46.41128 | -122.75818 | 23892 ft | 363 kts | 351° |
| 2026-04-26 09:02 | 46.43616 | -122.76449 | 23894 ft | 363 kts | 351° |
| 2026-04-26 09:02 | 46.46102 | -122.77081 | 23891 ft | 363 kts | 351° |
| 2026-04-26 09:02 | 46.48586 | -122.77712 | 23885 ft | 362 kts | 351° |
| 2026-04-26 09:03 | 46.51067 | -122.78344 | 23886 ft | 362 kts | 351° |
| 2026-04-26 09:03 | 46.53549 | -122.78976 | 23887 ft | 362 kts | 351° |
| 2026-04-26 09:03 | 46.55994 | -122.79599 | 23889 ft | 362 kts | 351° |
| 2026-04-26 09:03 | 46.58473 | -122.80232 | 23892 ft | 362 kts | 351° |
| 2026-04-26 09:04 | 46.60956 | -122.80866 | 23888 ft | 362 kts | 351° |
| 2026-04-26 09:04 | 46.63435 | -122.81500 | 23886 ft | 362 kts | 351° |
| 2026-04-26 09:04 | 46.65911 | -122.82134 | 23885 ft | 361 kts | 351° |
| 2026-04-26 09:04 | 46.68386 | -122.82768 | 23886 ft | 361 kts | 351° |
| 2026-04-26 09:05 | 46.70861 | -122.83402 | 23890 ft | 361 kts | 351° |
| 2026-04-26 09:05 | 46.73334 | -122.84037 | 23890 ft | 361 kts | 351° |
| 2026-04-26 09:05 | 46.75804 | -122.84671 | 23890 ft | 361 kts | 351° |
| 2026-04-26 09:05 | 46.78277 | -122.85307 | 23884 ft | 361 kts | 351° |
| 2026-04-26 09:06 | 46.80749 | -122.85943 | 23888 ft | 361 kts | 351° |
| 2026-04-26 09:06 | 46.83223 | -122.86580 | 23606 ft | 363 kts | 351° |
| 2026-04-26 09:06 | 46.85701 | -122.87219 | 23069 ft | 362 kts | 351° |
| 2026-04-26 09:06 | 46.88162 | -122.87855 | 22497 ft | 355 kts | 351° |
| 2026-04-26 09:07 | 46.90576 | -122.88479 | 21905 ft | 350 kts | 351° |
| 2026-04-26 09:07 | 46.92951 | -122.89093 | 21302 ft | 345 kts | 351° |
| 2026-04-26 09:07 | 46.94514 | -122.89433 | 20898 ft | 341 kts | 358° |
| 2026-04-26 09:07 | 46.97557 | -122.88734 | 20354 ft | 328 kts | 19° |
| 2026-04-26 09:08 | 46.98926 | -122.87803 | 20036 ft | 327 kts | 29° |
| 2026-04-26 09:08 | 47.00754 | -122.85837 | 19475 ft | 326 kts | 38° |
| 2026-04-26 09:08 | 47.02444 | -122.83639 | 18929 ft | 324 kts | 40° |
| 2026-04-26 09:08 | 47.04112 | -122.81433 | 18385 ft | 322 kts | 40° |
| 2026-04-26 09:09 | 47.05773 | -122.79249 | 17777 ft | 320 kts | 39° |
| 2026-04-26 09:09 | 47.07444 | -122.77094 | 17166 ft | 318 kts | 39° |
| 2026-04-26 09:09 | 47.09105 | -122.74970 | 16588 ft | 315 kts | 39° |
| 2026-04-26 09:09 | 47.10752 | -122.72865 | 16042 ft | 313 kts | 39° |
| 2026-04-26 09:10 | 47.12382 | -122.70782 | 15486 ft | 310 kts | 40° |
| 2026-04-26 09:10 | 47.14005 | -122.68705 | 14958 ft | 308 kts | 40° |
| 2026-04-26 09:10 | 47.15618 | -122.66638 | 14420 ft | 306 kts | 40° |
| 2026-04-26 09:10 | 47.17215 | -122.64590 | 13892 ft | 304 kts | 40° |
| 2026-04-26 09:11 | 47.18806 | -122.62549 | 13331 ft | 303 kts | 40° |
| 2026-04-26 09:11 | 47.20376 | -122.60532 | 13056 ft | 292 kts | 40° |
| 2026-04-26 09:11 | 47.21868 | -122.58613 | 12900 ft | 278 kts | 40° |
| 2026-04-26 09:11 | 47.23296 | -122.56775 | 12741 ft | 270 kts | 40° |
| 2026-04-26 09:12 | 47.24718 | -122.54943 | 12620 ft | 275 kts | 40° |
| 2026-04-26 09:12 | 47.26178 | -122.53063 | 12487 ft | 282 kts | 40° |
| 2026-04-26 09:12 | 47.27659 | -122.51153 | 12326 ft | 283 kts | 41° |
| 2026-04-26 09:12 | 47.29139 | -122.49243 | 12178 ft | 282 kts | 41° |
| 2026-04-26 09:13 | 47.30684 | -122.47490 | 11995 ft | 281 kts | 27° |
| 2026-04-26 09:13 | 47.32559 | -122.46737 | 11876 ft | 281 kts | 6° |
| 2026-04-26 09:13 | 47.34506 | -122.46963 | 11741 ft | 281 kts | 353° |
| 2026-04-26 09:13 | 47.36433 | -122.47472 | 11591 ft | 281 kts | 351° |
| 2026-04-26 09:14 | 47.38354 | -122.48027 | 11440 ft | 281 kts | 351° |
| 2026-04-26 09:14 | 47.40272 | -122.48587 | 11291 ft | 281 kts | 351° |
| 2026-04-26 09:14 | 47.42189 | -122.49143 | 11147 ft | 281 kts | 351° |
| 2026-04-26 09:14 | 47.44104 | -122.49692 | 10998 ft | 281 kts | 351° |
| 2026-04-26 09:15 | 47.46028 | -122.50240 | 10858 ft | 281 kts | 351° |
| 2026-04-26 09:15 | 47.47928 | -122.50777 | 10707 ft | 281 kts | 351° |
| 2026-04-26 09:15 | 47.49851 | -122.51319 | 10553 ft | 282 kts | 351° |
| 2026-04-26 09:15 | 47.51769 | -122.51858 | 10487 ft | 279 kts | 351° |
| 2026-04-26 09:16 | 47.53676 | -122.52393 | 10355 ft | 279 kts | 351° |
| 2026-04-26 09:16 | 47.55582 | -122.52927 | 10220 ft | 279 kts | 351° |
| 2026-04-26 09:16 | 47.57486 | -122.53460 | 10077 ft | 276 kts | 351° |
| 2026-04-26 09:16 | 47.59334 | -122.53979 | 9923 ft | 265 kts | 351° |
| 2026-04-26 09:17 | 47.61122 | -122.54481 | 9788 ft | 261 kts | 351° |
| 2026-04-26 09:17 | 47.62908 | -122.54981 | 9659 ft | 262 kts | 351° |
| 2026-04-26 09:17 | 47.64709 | -122.55485 | 9515 ft | 265 kts | 351° |
| 2026-04-26 09:17 | 47.66522 | -122.55993 | 9372 ft | 266 kts | 351° |
| 2026-04-26 09:18 | 47.68341 | -122.56503 | 9224 ft | 266 kts | 351° |
| 2026-04-26 09:18 | 47.70155 | -122.57013 | 9079 ft | 265 kts | 351° |
| 2026-04-26 09:18 | 47.71965 | -122.57522 | 8937 ft | 265 kts | 351° |
| 2026-04-26 09:18 | 47.73773 | -122.58030 | 8793 ft | 264 kts | 351° |
| 2026-04-26 09:19 | 47.75574 | -122.58538 | 8663 ft | 263 kts | 351° |
| 2026-04-26 09:19 | 47.77374 | -122.59045 | 8527 ft | 263 kts | 351° |
| 2026-04-26 09:19 | 47.79170 | -122.59551 | 8388 ft | 262 kts | 351° |
| 2026-04-26 09:19 | 47.80963 | -122.60057 | 8250 ft | 262 kts | 351° |
| 2026-04-26 09:20 | 47.82752 | -122.60562 | 8115 ft | 262 kts | 351° |
| 2026-04-26 09:20 | 47.84529 | -122.61064 | 7983 ft | 258 kts | 351° |
| 2026-04-26 09:20 | 47.86287 | -122.61561 | 7844 ft | 257 kts | 351° |
| 2026-04-26 09:20 | 47.88042 | -122.62058 | 7703 ft | 257 kts | 351° |
| 2026-04-26 09:21 | 47.89804 | -122.62556 | 7571 ft | 258 kts | 351° |
| 2026-04-26 09:21 | 47.91574 | -122.63057 | 7432 ft | 259 kts | 351° |
| 2026-04-26 09:21 | 47.93344 | -122.63559 | 7288 ft | 259 kts | 351° |
| 2026-04-26 09:21 | 47.95117 | -122.64061 | 7148 ft | 259 kts | 351° |
| 2026-04-26 09:22 | 47.96889 | -122.64565 | 7015 ft | 260 kts | 350° |
| 2026-04-26 09:22 | 47.98667 | -122.65070 | 6884 ft | 260 kts | 350° |
| 2026-04-26 09:22 | 48.00441 | -122.65574 | 6752 ft | 260 kts | 350° |
| 2026-04-26 09:22 | 48.02192 | -122.66072 | 6622 ft | 260 kts | 350° |
| 2026-04-26 09:23 | 48.03965 | -122.66577 | 6493 ft | 259 kts | 350° |
| 2026-04-26 09:23 | 48.05758 | -122.67088 | 6362 ft | 258 kts | 350° |
| 2026-04-26 09:23 | 48.07498 | -122.67585 | 6229 ft | 258 kts | 350° |
| 2026-04-26 09:23 | 48.09257 | -122.68087 | 6102 ft | 257 kts | 350° |
| 2026-04-26 09:24 | 48.11009 | -122.68586 | 5968 ft | 256 kts | 350° |
| 2026-04-26 09:24 | 48.12750 | -122.69084 | 5826 ft | 254 kts | 350° |
| 2026-04-26 09:24 | 48.14486 | -122.69580 | 5707 ft | 253 kts | 350° |
| 2026-04-26 09:24 | 48.16213 | -122.70074 | 5576 ft | 252 kts | 350° |
| 2026-04-26 09:25 | 48.17935 | -122.70536 | 5439 ft | 251 kts | 355° |
| 2026-04-26 09:25 | 48.19636 | -122.70128 | 5315 ft | 250 kts | 24° |
| 2026-04-26 09:25 | 48.21000 | -122.68546 | 5183 ft | 251 kts | 51° |
| 2026-04-26 09:25 | 48.21716 | -122.66176 | 5069 ft | 254 kts | 78° |
| 2026-04-26 09:26 | 48.21620 | -122.63534 | 4945 ft | 258 kts | 104° |
| 2026-04-26 09:26 | 48.20939 | -122.61036 | 4801 ft | 260 kts | 113° |
| 2026-04-26 09:26 | 48.20152 | -122.58594 | 4657 ft | 261 kts | 114° |
| 2026-04-26 09:26 | 48.19346 | -122.56145 | 4511 ft | 262 kts | 114° |
| 2026-04-26 09:27 | 48.18545 | -122.53698 | 4369 ft | 262 kts | 114° |
| 2026-04-26 09:27 | 48.17746 | -122.51242 | 4231 ft | 262 kts | 114° |
| 2026-04-26 09:27 | 48.16954 | -122.48791 | 4089 ft | 262 kts | 114° |
| 2026-04-26 09:27 | 48.16162 | -122.46330 | 3946 ft | 262 kts | 113° |
| 2026-04-26 09:28 | 48.15373 | -122.43873 | 3816 ft | 261 kts | 114° |
| 2026-04-26 09:28 | 48.14586 | -122.41421 | 3661 ft | 261 kts | 113° |
| 2026-04-26 09:28 | 48.13813 | -122.39010 | 3552 ft | 260 kts | 114° |
| 2026-04-26 09:28 | 48.13033 | -122.36581 | 3425 ft | 259 kts | 114° |
| 2026-04-26 09:29 | 48.12266 | -122.34196 | 3283 ft | 249 kts | 114° |
| 2026-04-26 09:29 | 48.11528 | -122.31908 | 3154 ft | 239 kts | 114° |
| 2026-04-26 09:29 | 48.10655 | -122.29860 | 3026 ft | 226 kts | 137° |
| 2026-04-26 09:29 | 48.09304 | -122.28954 | 2894 ft | 211 kts | 172° |
| 2026-04-26 09:30 | 48.07895 | -122.28866 | 2763 ft | 196 kts | 181° |
| 2026-04-26 09:30 | 48.06579 | -122.28884 | 2624 ft | 180 kts | 180° |
| 2026-04-26 09:30 | 48.05387 | -122.28874 | 2532 ft | 165 kts | 180° |
| 2026-04-26 09:30 | 48.04301 | -122.28853 | 2472 ft | 146 kts | 180° |
| 2026-04-26 09:31 | 48.03320 | -122.28831 | 2337 ft | 137 kts | 180° |
| 2026-04-26 09:31 | 48.02370 | -122.28811 | 2263 ft | 137 kts | 180° |
| 2026-04-26 09:31 | 48.01413 | -122.28790 | 2189 ft | 138 kts | 180° |
| 2026-04-26 09:31 | 48.00449 | -122.28768 | 2071 ft | 138 kts | 180° |
| 2026-04-26 09:32 | 47.99485 | -122.28747 | 2022 ft | 138 kts | 180° |
| 2026-04-26 09:32 | 47.98516 | -122.28725 | 1879 ft | 140 kts | 180° |
| 2026-04-26 09:32 | 47.97548 | -122.28703 | 1698 ft | 138 kts | 181° |
| 2026-04-26 09:32 | 47.96604 | -122.28682 | 1505 ft | 134 kts | 180° |
| 2026-04-26 09:33 | 47.95685 | -122.28662 | 1344 ft | 132 kts | 180° |
| 2026-04-26 09:33 | 47.94772 | -122.28642 | 1163 ft | 130 kts | 179° |
| 2026-04-26 09:33 | 47.93875 | -122.28623 | 964 ft | 127 kts | 179° |
| 2026-04-26 09:33 | 47.92998 | -122.28602 | 809 ft | 126 kts | 179° |
| 2026-04-26 09:34 | 47.92124 | -122.28585 | 650 ft | 126 kts | 179° |
| 2026-04-26 09:34 | 47.91265 | -122.28570 | 579 ft | 111 kts | 179° |
| 2026-04-26 09:34 | 47.90651 | -122.28555 | 580 ft | 56 kts | 180° |
| 2026-04-26 09:34 | 47.90343 | -122.28550 | 582 ft | 30 kts | 180° |
| 2026-04-26 09:35 | 47.90222 | -122.28532 | 582 ft | 11 kts | 143° |
| 2026-04-26 09:35 | 47.90208 | -122.28423 | 583 ft | 12 kts | 89° |
| 2026-04-26 09:35 | 47.90245 | -122.28330 | 583 ft | 12 kts | 10° |
| 2026-04-26 09:35 | 47.90344 | -122.28325 | 580 ft | 16 kts | 359° |
| 2026-04-26 09:36 | 47.90473 | -122.28329 | 578 ft | 20 kts | 359° |
| 2026-04-26 09:36 | 47.90615 | -122.28333 | 580 ft | 20 kts | 359° |
| 2026-04-26 09:36 | 47.90752 | -122.28336 | 580 ft | 19 kts | 359° |
| 2026-04-26 09:36 | 47.90885 | -122.28338 | 583 ft | 19 kts | 360° |
| 2026-04-26 09:37 | 47.91013 | -122.28342 | 582 ft | 18 kts | 359° |
| 2026-04-26 09:37 | 47.91120 | -122.28344 | 580 ft | 13 kts | 359° |
| 2026-04-26 09:37 | 47.91210 | -122.28345 | 580 ft | 13 kts | 359° |
| 2026-04-26 09:37 | 47.91284 | -122.28294 | 581 ft | 13 kts | 68° |
| 2026-04-26 09:38 | 47.91290 | -122.28153 | 575 ft | 14 kts | 88° |
| 2026-04-26 09:38 | 47.91340 | -122.28051 | 575 ft | 14 kts | 9° |
| 2026-04-26 09:38 | 47.91439 | -122.28053 | 577 ft | 15 kts | 357° |
| 2026-04-26 09:38 | 47.91501 | -122.28059 | 573 ft | 6 kts | 346° |
| 2026-04-26 09:39 | 47.91523 | -122.28104 | 571 ft | 6 kts | 281° |
| 2026-04-26 09:39 | 47.91524 | -122.28159 | 572 ft | 1 kts | 268° |
| 2026-04-26 09:39 | 47.91524 | -122.28162 | 572 ft | 0 kts | 268° |